createdAt,value
2022-10-30T00:00:22.605Z,9.32
2022-10-30T00:02:50.837Z,9.65
2022-10-30T00:05:21.045Z,8.77
2022-10-30T00:07:51.016Z,9.57
2022-10-30T00:10:19.183Z,9.10
2022-10-30T00:12:49.160Z,9.75
2022-10-30T00:18:03.499Z,10.50
2022-10-30T00:20:31.296Z,9.50
2022-10-30T00:22:59.339Z,9.70
2022-10-30T00:28:15.034Z,9.60
2022-10-30T00:30:43.736Z,8.38
2022-10-30T00:35:56.891Z,8.80
2022-10-30T00:38:24.894Z,9.38
2022-10-30T00:40:54.346Z,9.15
2022-10-30T00:43:40.783Z,8.90
2022-10-30T00:46:26.358Z,8.98
2022-10-30T00:49:08.278Z,8.88
2022-10-30T01:02:41.327Z,8.48
2022-10-30T01:07:39.194Z,9.20
2022-10-30T01:10:07.765Z,9.63
2022-10-30T01:12:37.137Z,9.13
2022-10-30T01:15:07.769Z,9.07
2022-10-30T01:20:33.864Z,8.55
2022-10-30T01:23:28.654Z,8.90
2022-10-30T01:26:15.869Z,9.52
2022-10-30T01:29:01.017Z,8.00
2022-10-30T01:31:31.989Z,8.32
2022-10-30T01:34:06.060Z,9.82
2022-10-30T01:37:03.117Z,8.52
2022-10-30T01:39:38.437Z,8.30
2022-10-30T01:42:29.314Z,8.85
2022-10-30T01:44:57.450Z,8.63
2022-10-30T01:47:47.777Z,8.73
2022-10-30T01:53:09.466Z,8.82
2022-10-30T01:55:40.253Z,9.55
2022-10-30T01:58:11.026Z,9.65
2022-10-30T02:00:40.045Z,9.13
2022-10-30T02:03:07.967Z,8.93
2022-10-30T02:05:58.798Z,9.80
2022-10-30T02:08:28.652Z,8.93
2022-10-30T02:10:57.431Z,8.40
2022-10-30T02:13:38.279Z,8.77
2022-10-30T02:16:07.259Z,8.48
2022-10-30T02:21:21.621Z,9.02
2022-10-30T02:23:49.785Z,9.15
2022-10-30T02:29:03.078Z,9.30
2022-10-30T02:31:31.442Z,8.65
2022-10-30T02:33:59.163Z,11.55
2022-10-30T02:36:29.482Z,10.20
2022-10-30T02:38:57.447Z,9.52
2022-10-30T02:41:25.400Z,9.80
2022-10-30T02:43:53.827Z,8.93
2022-10-30T02:49:09.264Z,9.27
2022-10-30T02:51:37.183Z,9.10
2022-10-30T02:54:05.946Z,8.93
2022-10-30T02:56:34.094Z,9.73
2022-10-30T02:59:02.073Z,8.45
2022-10-30T03:07:02.239Z,8.35
2022-10-30T03:09:30.640Z,8.77
2022-10-30T03:11:59.535Z,8.15
2022-10-30T03:14:27.574Z,8.63
2022-10-30T03:16:55.869Z,7.78
2022-10-30T03:19:24.540Z,9.25
2022-10-30T03:24:42.248Z,8.13
2022-10-30T03:29:56.200Z,11.10
2022-10-30T03:32:28.601Z,8.80
2022-10-30T03:34:56.818Z,8.75
2022-10-30T03:37:25.973Z,8.98
2022-10-30T03:42:44.523Z,9.20
2022-10-30T03:47:58.836Z,8.95
2022-10-30T03:50:27.065Z,8.85
2022-10-30T03:52:57.916Z,8.55
2022-10-30T03:55:25.965Z,8.70
2022-10-30T03:57:55.081Z,8.98
2022-10-30T04:08:40.800Z,8.98
2022-10-30T04:11:11.419Z,8.48
2022-10-30T04:13:43.840Z,8.77
2022-10-30T04:16:13.951Z,8.52
2022-10-30T04:18:42.368Z,9.00
2022-10-30T04:23:57.532Z,8.75
2022-10-30T04:29:14.737Z,8.43
2022-10-30T04:31:43.586Z,9.52
2022-10-30T04:34:12.529Z,9.10
2022-10-30T04:36:41.785Z,8.75
2022-10-30T04:42:03.712Z,9.10
2022-10-30T04:44:34.984Z,9.20
2022-10-30T04:47:03.826Z,9.75
2022-10-30T04:49:33.575Z,9.50
2022-10-30T04:52:01.839Z,10.30
2022-10-30T04:54:32.659Z,10.50
2022-10-30T04:57:00.521Z,10.02
2022-10-30T04:59:28.327Z,9.88
2022-10-30T05:01:56.760Z,10.13
2022-10-30T05:04:26.456Z,9.35
2022-10-30T05:06:55.212Z,9.95
2022-10-30T05:09:30.917Z,10.93
2022-10-30T05:11:59.970Z,9.80
2022-10-30T05:14:31.657Z,11.20
2022-10-30T05:16:59.994Z,9.80
2022-10-30T05:22:13.618Z,10.05
2022-10-30T05:27:28.050Z,10.60
2022-10-30T05:29:56.458Z,9.93
2022-10-30T05:32:24.513Z,10.32
2022-10-30T05:34:53.510Z,10.18
2022-10-30T05:37:24.087Z,10.07
2022-10-30T05:39:54.451Z,10.05
2022-10-30T05:42:27.614Z,11.07
2022-10-30T05:45:01.794Z,10.95
2022-10-30T05:47:35.472Z,9.70
2022-10-30T05:50:04.862Z,10.80
2022-10-30T05:52:32.998Z,10.73
2022-10-30T05:55:08.043Z,10.73
2022-10-30T05:58:00.897Z,11.90
2022-10-30T06:03:24.329Z,12.38
2022-10-30T06:08:43.498Z,12.15
2022-10-30T06:17:09.120Z,12.80
2022-10-30T06:19:58.055Z,12.48
2022-10-30T06:23:00.948Z,13.02
2022-10-30T06:25:41.626Z,12.30
2022-10-30T06:28:19.424Z,11.82
2022-10-30T06:30:48.020Z,12.07
2022-10-30T06:33:16.018Z,12.05
2022-10-30T06:35:52.485Z,12.80
2022-10-30T06:41:08.408Z,10.95
2022-10-30T06:43:54.137Z,10.67
2022-10-30T06:46:27.483Z,10.38
2022-10-30T06:48:59.743Z,11.25
2022-10-30T06:51:28.279Z,12.50
2022-10-30T06:53:58.793Z,11.27
2022-10-30T06:56:51.362Z,12.43
2022-10-30T06:59:46.414Z,12.23
2022-10-30T07:03:10.243Z,11.25
2022-10-30T07:17:21.787Z,10.68
2022-10-30T07:22:44.145Z,11.52
2022-10-30T07:25:12.346Z,11.10
2022-10-30T07:27:59.354Z,10.68
2022-10-30T07:30:44.077Z,11.45
2022-10-30T07:33:20.706Z,11.77
2022-10-30T07:36:08.411Z,12.20
2022-10-30T07:38:49.127Z,12.00
2022-10-30T07:41:32.512Z,12.98
2022-10-30T07:47:18.790Z,12.13
2022-10-30T07:50:24.025Z,12.82
2022-10-30T07:52:52.032Z,14.75
2022-10-30T07:55:24.986Z,14.13
2022-10-30T08:00:49.361Z,13.67
2022-10-30T08:03:30.857Z,14.07
2022-10-30T08:06:06.487Z,13.05
2022-10-30T08:08:43.130Z,14.30
2022-10-30T08:11:28.472Z,12.73
2022-10-30T08:13:58.494Z,13.50
2022-10-30T08:16:26.565Z,12.80
2022-10-30T08:18:54.533Z,13.02
2022-10-30T08:24:17.399Z,13.00
2022-10-30T08:26:52.749Z,12.98
2022-10-30T08:29:21.888Z,12.63
2022-10-30T08:38:04.635Z,12.73
2022-10-30T08:40:38.166Z,12.30
2022-10-30T08:43:08.316Z,10.85
2022-10-30T08:45:39.955Z,10.73
2022-10-30T08:48:27.299Z,11.55
2022-10-30T08:51:34.644Z,12.02
2022-10-30T08:57:23.656Z,12.82
2022-10-30T08:59:54.840Z,10.27
2022-10-30T09:03:14.884Z,9.10
2022-10-30T09:07:10.353Z,9.57
2022-10-30T09:21:37.111Z,5.78
2022-10-30T09:24:06.489Z,6.20
2022-10-30T09:26:41.397Z,6.10
2022-10-30T09:29:40.909Z,5.30
2022-10-30T09:32:19.192Z,5.70
2022-10-30T09:35:03.156Z,5.45
2022-10-30T09:37:39.429Z,5.40
2022-10-30T09:40:34.010Z,5.50
2022-10-30T09:43:37.016Z,5.20
2022-10-30T10:05:17.056Z,6.05
2022-10-30T10:08:13.659Z,5.82
2022-10-30T10:11:25.047Z,6.05
2022-10-30T10:14:16.684Z,6.32
2022-10-30T10:16:56.711Z,6.93
2022-10-30T10:20:01.860Z,6.57
2022-10-30T10:22:38.160Z,6.90
2022-10-30T10:25:09.787Z,6.97
2022-10-30T10:27:56.540Z,7.28
2022-10-30T10:30:25.131Z,7.28
2022-10-30T10:33:02.114Z,7.57
2022-10-30T10:39:17.345Z,7.70
2022-10-30T10:45:17.198Z,7.47
2022-10-30T10:48:41.661Z,6.18
2022-10-30T10:51:17.796Z,5.57
2022-10-30T10:54:01.966Z,5.68
2022-10-30T10:56:37.088Z,6.82
2022-10-30T10:59:09.173Z,6.03
2022-10-30T11:01:41.367Z,5.78
2022-10-30T11:10:34.439Z,6.57
2022-10-30T11:13:02.976Z,6.55
2022-10-30T11:15:49.594Z,6.07
2022-10-30T11:18:32.455Z,6.25
2022-10-30T11:21:13.771Z,6.22
2022-10-30T11:23:47.046Z,6.00
2022-10-30T11:26:17.927Z,6.28
2022-10-30T11:28:57.502Z,5.93
2022-10-30T11:31:27.754Z,5.70
2022-10-30T11:34:19.820Z,5.18
2022-10-30T11:36:52.232Z,5.20
2022-10-30T11:39:25.082Z,5.57
2022-10-30T11:44:51.106Z,5.67
2022-10-30T11:47:23.566Z,4.55
2022-10-30T11:49:55.074Z,5.00
2022-10-30T11:52:51.635Z,4.97
2022-10-30T11:55:38.528Z,4.63
2022-10-30T12:01:37.110Z,5.05
2022-10-30T12:04:43.355Z,4.60
2022-10-30T12:07:25.155Z,5.45
2022-10-30T12:10:07.581Z,5.07
2022-10-30T12:12:43.755Z,4.80
2022-10-30T12:21:22.551Z,6.28
2022-10-30T12:35:47.905Z,4.28
2022-10-30T12:38:46.037Z,4.15
2022-10-30T12:41:22.895Z,4.47
2022-10-30T12:44:18.528Z,3.97
2022-10-30T12:47:16.639Z,3.67
2022-10-30T12:49:53.321Z,3.58
2022-10-30T12:52:34.313Z,2.97
2022-10-30T13:05:51.637Z,3.50
2022-10-30T13:08:32.386Z,3.30
2022-10-30T13:11:07.970Z,3.33
2022-10-30T13:13:43.784Z,2.67
2022-10-30T13:16:26.353Z,3.72
2022-10-30T13:19:00.640Z,3.28
2022-10-30T13:22:00.575Z,3.00
2022-10-30T13:24:46.105Z,3.15
2022-10-30T13:27:21.583Z,3.15
2022-10-30T13:30:10.548Z,3.00
2022-10-30T13:32:53.377Z,3.22
2022-10-30T13:39:03.339Z,2.70
2022-10-30T13:41:45.752Z,2.83
2022-10-30T13:44:19.435Z,3.25
2022-10-30T13:47:05.929Z,2.72
2022-10-30T13:49:54.290Z,3.10
2022-10-30T13:55:00.026Z,2.60
2022-10-30T13:57:31.944Z,4.03
2022-10-30T14:00:13.295Z,3.15
2022-10-30T14:02:50.038Z,3.63
2022-10-30T14:05:54.665Z,3.83
2022-10-30T14:08:22.735Z,2.85
2022-10-30T14:11:00.352Z,2.88
2022-10-30T14:13:36.683Z,3.10
2022-10-30T14:16:29.709Z,2.95
2022-10-30T14:19:12.296Z,2.92
2022-10-30T14:33:27.994Z,2.92
2022-10-30T14:36:21.796Z,3.47
2022-10-30T14:39:14.899Z,4.05
2022-10-30T14:42:15.834Z,3.42
2022-10-30T14:48:24.388Z,3.28
2022-10-30T14:51:06.959Z,3.25
2022-10-30T14:59:39.582Z,3.65
2022-10-30T15:02:14.894Z,2.90
2022-10-30T15:11:41.302Z,3.17
2022-10-30T15:14:40.844Z,3.05
2022-10-30T15:18:00.423Z,3.97
2022-10-30T15:23:24.101Z,3.72
2022-10-30T15:26:00.771Z,3.28
2022-10-30T15:28:31.682Z,3.20
2022-10-30T15:31:06.227Z,3.17
2022-10-30T15:33:38.367Z,3.30
2022-10-30T15:36:15.544Z,3.25
2022-10-30T15:38:44.403Z,3.17
2022-10-30T15:41:15.618Z,3.42
2022-10-30T15:43:45.733Z,3.42
2022-10-30T15:46:14.891Z,3.60
2022-10-30T15:48:46.019Z,3.63
2022-10-30T15:51:23.680Z,3.70
2022-10-30T15:53:59.385Z,3.42
2022-10-30T16:04:50.540Z,4.07
2022-10-30T16:07:26.954Z,3.83
2022-10-30T16:09:59.644Z,3.97
2022-10-30T16:12:32.464Z,3.90
2022-10-30T16:15:11.141Z,3.60
2022-10-30T16:17:39.291Z,3.45
2022-10-30T16:20:11.521Z,3.88
2022-10-30T16:22:39.836Z,3.83
2022-10-30T16:25:08.095Z,4.07
2022-10-30T16:27:43.888Z,4.65
2022-10-30T16:30:14.584Z,3.38
2022-10-30T16:32:52.400Z,3.53
2022-10-30T16:38:09.549Z,3.88
2022-10-30T16:40:38.359Z,3.78
2022-10-30T16:43:24.506Z,3.28
2022-10-30T16:46:01.711Z,2.95
2022-10-30T16:48:30.269Z,3.60
2022-10-30T16:51:04.728Z,3.80
2022-10-30T16:53:32.897Z,3.63
2022-10-30T16:56:04.137Z,2.88
2022-10-30T16:58:32.257Z,3.00
2022-10-30T17:01:08.347Z,2.63
2022-10-30T17:12:21.447Z,3.22
2022-10-30T17:15:10.859Z,2.90
2022-10-30T17:17:40.058Z,3.13
2022-10-30T17:20:30.890Z,4.00
2022-10-30T17:29:52.691Z,3.95
2022-10-30T17:32:28.263Z,3.47
2022-10-30T17:35:01.664Z,4.57
2022-10-30T17:37:30.454Z,3.78
2022-10-30T17:40:00.963Z,3.15
2022-10-30T17:50:33.156Z,3.95
2022-10-30T17:53:01.988Z,3.92
2022-10-30T17:55:36.680Z,4.07
2022-10-30T17:58:10.440Z,3.60
2022-10-30T18:00:40.132Z,3.88
2022-10-30T18:03:09.655Z,4.32
2022-10-30T18:05:50.210Z,5.15
2022-10-30T18:14:02.088Z,7.22
2022-10-30T18:16:33.030Z,4.88
2022-10-30T18:19:04.948Z,4.28
2022-10-30T18:21:33.530Z,4.97
2022-10-30T18:24:04.796Z,4.35
2022-10-30T18:26:40.048Z,5.60
2022-10-30T18:29:19.784Z,5.97
2022-10-30T18:31:48.472Z,6.40
2022-10-30T18:34:20.813Z,7.68
2022-10-30T18:39:35.065Z,9.02
2022-10-30T18:42:04.593Z,9.48
2022-10-30T18:44:37.494Z,10.77
2022-10-30T18:47:13.216Z,10.38
2022-10-30T18:49:50.753Z,11.68
2022-10-30T18:52:19.041Z,10.15
2022-10-30T18:54:47.460Z,10.30
2022-10-30T19:00:17.455Z,9.40
2022-10-30T19:02:46.280Z,10.73
2022-10-30T19:05:29.806Z,11.18
2022-10-30T19:08:03.832Z,10.20
2022-10-30T19:10:33.947Z,8.40
2022-10-30T19:13:22.506Z,8.32
2022-10-30T19:16:00.530Z,9.02
2022-10-30T19:21:27.578Z,8.32
2022-10-30T19:26:45.129Z,8.82
2022-10-30T19:29:13.853Z,9.23
2022-10-30T19:31:42.217Z,9.65
2022-10-30T19:34:09.991Z,9.70
2022-10-30T19:45:14.084Z,11.18
2022-10-30T19:47:47.642Z,9.60
2022-10-30T19:50:28.550Z,10.52
2022-10-30T19:53:07.326Z,7.93
2022-10-30T19:55:39.601Z,8.05
2022-10-30T19:58:34.685Z,6.20
2022-10-30T20:04:00.996Z,4.25
2022-10-30T20:09:34.205Z,3.97
2022-10-30T20:14:49.689Z,3.15
2022-10-30T20:17:18.070Z,3.08
2022-10-30T20:22:40.874Z,2.60
2022-10-30T20:25:12.249Z,2.70
2022-10-30T20:30:36.024Z,2.35
2022-10-30T20:33:04.296Z,2.45
2022-10-30T20:35:32.920Z,1.95
2022-10-30T20:38:02.382Z,2.00
2022-10-30T20:40:56.453Z,2.53
2022-10-30T20:43:37.445Z,2.50
2022-10-30T20:46:07.033Z,2.80
2022-10-30T20:48:38.048Z,3.05
2022-10-30T20:51:06.966Z,3.15
2022-10-30T20:53:40.827Z,3.75
2022-10-30T20:56:09.008Z,5.13
2022-10-30T20:58:37.569Z,5.85
2022-10-30T21:01:06.707Z,6.22
2022-10-30T21:03:37.156Z,7.28
2022-10-30T21:06:12.961Z,6.85
2022-10-30T21:20:24.876Z,5.95
2022-10-30T21:22:54.065Z,4.95
2022-10-30T21:25:23.308Z,5.18
2022-10-30T21:27:53.003Z,5.03
2022-10-30T21:30:35.361Z,4.68
2022-10-30T21:33:05.586Z,5.00
2022-10-30T21:35:50.873Z,4.57
2022-10-30T21:41:07.687Z,4.80
2022-10-30T21:43:36.226Z,5.57
2022-10-30T21:46:11.757Z,5.50
2022-10-30T21:49:08.808Z,5.18
2022-10-30T21:51:44.476Z,6.25
2022-10-30T21:54:12.745Z,6.68
2022-10-30T21:56:42.661Z,6.20
2022-10-30T22:02:03.059Z,6.90
2022-10-30T22:07:24.428Z,5.65
2022-10-30T22:10:09.025Z,6.22
2022-10-30T22:12:38.488Z,5.57
2022-10-30T22:17:54.986Z,5.53
2022-10-30T22:20:32.263Z,5.28
2022-10-30T22:23:01.155Z,4.78
2022-10-30T22:25:29.283Z,4.82
2022-10-30T22:27:59.482Z,4.90
2022-10-30T22:30:29.987Z,4.97
2022-10-30T22:32:58.247Z,4.38
2022-10-30T22:41:27.748Z,5.82
2022-10-30T22:46:43.493Z,5.90
2022-10-30T22:49:11.892Z,7.32
2022-10-30T22:51:40.089Z,6.93
2022-10-30T22:54:12.650Z,7.78
2022-10-30T22:56:41.030Z,8.40
2022-10-30T22:59:29.207Z,8.18
2022-10-30T23:01:57.967Z,7.82
2022-10-30T23:04:25.836Z,8.63
2022-10-30T23:06:54.098Z,7.68
2022-10-30T23:09:22.403Z,7.25
2022-10-30T23:11:53.843Z,6.97
2022-10-30T23:14:21.814Z,6.03
2022-10-30T23:16:50.143Z,6.00
2022-10-30T23:19:18.461Z,5.70
2022-10-30T23:21:51.387Z,5.60
2022-10-30T23:24:30.855Z,4.72
2022-10-30T23:26:59.230Z,4.65
2022-10-30T23:29:32.473Z,4.72
2022-10-30T23:32:00.811Z,4.15
2022-10-30T23:34:28.833Z,3.97
2022-10-30T23:36:59.187Z,3.92
2022-10-30T23:39:30.201Z,3.95
2022-10-30T23:41:58.441Z,3.90
2022-10-30T23:44:33.878Z,4.22
2022-10-30T23:47:02.376Z,4.80
2022-10-30T23:49:34.134Z,4.80
2022-10-30T23:52:10.032Z,4.80
2022-10-30T23:54:39.435Z,5.88
2022-10-30T23:57:07.742Z,5.38
2022-10-30T23:59:39.943Z,6.05
